createdAt,value
2019-04-30T00:00:45.402Z,20.20
2019-04-30T00:01:48.478Z,20.30
2019-04-30T00:02:45.397Z,20.60
2019-04-30T00:03:46.107Z,20.90
2019-04-30T00:04:45.240Z,20.30
2019-04-30T00:05:45.072Z,21.20
2019-04-30T00:06:45.365Z,21.00
2019-04-30T00:07:46.095Z,21.00
2019-04-30T00:08:45.156Z,21.40
2019-04-30T00:09:44.970Z,21.20
2019-04-30T00:10:45.374Z,21.30
2019-04-30T00:11:45.924Z,21.40
2019-04-30T00:12:45.253Z,21.70
2019-04-30T00:13:45.832Z,22.00
2019-04-30T00:14:44.876Z,21.30
2019-04-30T00:15:45.275Z,22.30
2019-04-30T00:16:45.119Z,21.90
2019-04-30T00:17:45.628Z,21.10
2019-04-30T00:18:57.129Z,22.00
2019-04-30T00:19:45.903Z,22.00
2019-04-30T00:20:45.348Z,22.00
2019-04-30T00:21:48.291Z,22.10
2019-04-30T00:22:47.032Z,21.90
2019-04-30T00:23:45.911Z,22.20
2019-04-30T00:24:46.823Z,22.50
2019-04-30T00:25:46.034Z,22.00
2019-04-30T00:26:46.716Z,22.20
2019-04-30T00:27:45.892Z,23.70
2019-04-30T00:28:46.822Z,22.40
2019-04-30T00:29:45.631Z,21.70
2019-04-30T00:30:45.133Z,22.80
2019-04-30T00:31:44.683Z,23.10
2019-04-30T00:32:45.601Z,22.50
2019-04-30T00:33:44.942Z,23.70
2019-04-30T00:34:45.502Z,23.50
2019-04-30T00:35:45.326Z,22.00
2019-04-30T00:36:43.610Z,22.40
2019-04-30T00:37:44.919Z,22.60
2019-04-30T00:38:44.828Z,23.40
2019-04-30T00:39:50.737Z,23.90
2019-04-30T00:40:45.058Z,23.60
2019-04-30T00:41:47.326Z,23.30
2019-04-30T00:42:43.545Z,22.90
2019-04-30T00:43:48.006Z,22.70
2019-04-30T00:44:45.630Z,23.30
2019-04-30T00:45:44.884Z,23.30
2019-04-30T00:46:45.399Z,24.20
2019-04-30T00:47:44.505Z,24.20
2019-04-30T00:48:43.489Z,24.50
2019-04-30T00:49:44.861Z,24.30
2019-04-30T00:50:43.453Z,24.50
2019-04-30T00:51:45.286Z,23.40
2019-04-30T00:52:43.432Z,23.40
2019-04-30T00:53:43.916Z,24.20
2019-04-30T00:54:45.200Z,23.40
2019-04-30T00:55:46.786Z,25.70
2019-04-30T00:56:45.493Z,23.90
2019-04-30T00:57:46.200Z,24.20
2019-04-30T00:58:45.183Z,25.70
2019-04-30T00:59:44.610Z,23.80
2019-04-30T01:00:43.340Z,25.00
2019-04-30T01:01:47.663Z,24.20
2019-04-30T01:02:43.346Z,24.50
2019-04-30T01:03:46.477Z,25.10
2019-04-30T01:04:45.010Z,25.60
2019-04-30T01:05:44.487Z,24.30
2019-04-30T01:06:43.274Z,25.30
2019-04-30T01:07:48.815Z,26.40
2019-04-30T01:08:46.141Z,24.60
2019-04-30T01:09:46.413Z,26.00
2019-04-30T01:10:46.014Z,26.00
2019-04-30T01:11:46.788Z,27.30
2019-04-30T01:12:47.344Z,27.50
2019-04-30T01:13:50.187Z,27.00
2019-04-30T01:14:44.206Z,25.70
2019-04-30T01:15:44.038Z,25.80
2019-04-30T01:16:44.161Z,26.60
2019-04-30T01:17:45.444Z,26.20
2019-04-30T01:18:44.171Z,26.30
2019-04-30T01:19:45.990Z,27.60
2019-04-30T01:20:44.115Z,26.80
2019-04-30T01:21:46.983Z,26.90
2019-04-30T01:22:44.093Z,27.70
2019-04-30T01:23:51.928Z,28.30
2019-04-30T01:24:44.100Z,27.00
2019-04-30T01:25:47.105Z,27.10
2019-04-30T01:26:43.107Z,27.40
2019-04-30T01:27:45.613Z,26.60
2019-04-30T01:28:43.031Z,26.90
2019-04-30T01:29:44.399Z,27.80
2019-04-30T01:30:43.016Z,26.70
2019-04-30T01:31:42.997Z,27.80
2019-04-30T01:32:42.985Z,28.00
2019-04-30T01:33:42.972Z,26.60
2019-04-30T01:34:44.202Z,26.90
2019-04-30T01:35:43.953Z,27.40
2019-04-30T01:36:43.513Z,27.00
2019-04-30T01:37:42.926Z,27.50
2019-04-30T01:38:44.854Z,26.30
2019-04-30T01:39:43.906Z,26.30
2019-04-30T01:40:47.330Z,25.50
2019-04-30T01:41:43.884Z,26.70
2019-04-30T01:42:47.982Z,26.10
2019-04-30T01:43:43.862Z,26.20
2019-04-30T01:44:43.466Z,25.80
2019-04-30T01:45:42.862Z,26.30
2019-04-30T01:46:43.262Z,26.10
2019-04-30T01:47:42.815Z,24.90
2019-04-30T01:48:43.621Z,25.60
2019-04-30T01:49:44.897Z,25.80
2019-04-30T01:50:42.809Z,25.60
2019-04-30T01:51:42.771Z,24.90
2019-04-30T01:52:42.800Z,24.20
2019-04-30T01:53:43.822Z,25.30
2019-04-30T01:54:42.760Z,24.40
2019-04-30T01:55:42.781Z,24.20
2019-04-30T01:56:42.737Z,23.10
2019-04-30T01:57:42.703Z,24.40
2019-04-30T01:58:42.693Z,25.70
2019-04-30T01:59:42.709Z,24.70
2019-04-30T02:00:42.697Z,24.50
2019-04-30T02:01:42.660Z,25.40
2019-04-30T02:02:42.657Z,25.00
2019-04-30T02:03:42.637Z,25.30
2019-04-30T02:04:42.626Z,24.10
2019-04-30T02:05:42.642Z,22.80
2019-04-30T02:06:42.628Z,23.30
2019-04-30T02:07:42.597Z,24.30
2019-04-30T02:08:42.588Z,24.10
2019-04-30T02:09:42.571Z,23.80
2019-04-30T02:10:42.608Z,25.00
2019-04-30T02:11:42.553Z,23.90
2019-04-30T02:12:42.536Z,24.00
2019-04-30T02:13:42.526Z,25.30
2019-04-30T02:14:42.553Z,23.90
2019-04-30T02:15:42.535Z,23.50
2019-04-30T02:16:42.505Z,24.30
2019-04-30T02:17:42.487Z,23.90
2019-04-30T02:18:42.470Z,23.70
2019-04-30T02:19:53.905Z,24.80
2019-04-30T02:20:43.470Z,23.80
2019-04-30T02:21:42.436Z,23.40
2019-04-30T02:22:42.428Z,24.10
2019-04-30T02:23:42.414Z,23.70
2019-04-30T02:24:42.405Z,23.40
2019-04-30T02:25:42.425Z,24.60
2019-04-30T02:26:42.404Z,24.20
2019-04-30T02:27:42.368Z,24.50
2019-04-30T02:28:42.357Z,24.20
2019-04-30T02:29:42.349Z,23.80
2019-04-30T02:30:42.336Z,22.90
2019-04-30T02:31:42.350Z,24.20
2019-04-30T02:32:42.314Z,23.70
2019-04-30T02:33:42.339Z,24.10
2019-04-30T02:34:44.175Z,25.20
2019-04-30T02:35:42.287Z,24.60
2019-04-30T02:36:42.291Z,24.00
2019-04-30T02:37:43.515Z,24.40
2019-04-30T02:38:42.290Z,23.30
2019-04-30T02:39:42.241Z,24.90
2019-04-30T02:40:42.687Z,23.80
2019-04-30T02:41:42.237Z,24.50
2019-04-30T02:42:42.222Z,24.50
2019-04-30T02:43:42.191Z,25.30
2019-04-30T02:44:42.179Z,24.20
2019-04-30T02:45:42.180Z,25.00
2019-04-30T02:46:42.186Z,24.50
2019-04-30T02:47:42.145Z,24.70
2019-04-30T02:48:42.157Z,24.80
2019-04-30T02:49:42.133Z,24.20
2019-04-30T02:50:42.122Z,25.00
2019-04-30T02:51:42.127Z,24.90
2019-04-30T02:52:42.105Z,24.70
2019-04-30T02:53:42.079Z,24.40
2019-04-30T02:54:42.069Z,24.30
2019-04-30T02:55:42.063Z,24.60
2019-04-30T02:56:42.083Z,24.30
2019-04-30T02:57:42.037Z,25.00
2019-04-30T02:58:42.029Z,24.80
2019-04-30T02:59:42.013Z,24.90
2019-04-30T03:00:42.009Z,24.60
2019-04-30T03:01:42.019Z,24.40
2019-04-30T03:02:41.978Z,24.80
2019-04-30T03:03:42.717Z,24.80
2019-04-30T03:04:41.959Z,24.30
2019-04-30T03:05:41.984Z,25.60
2019-04-30T03:06:41.955Z,24.10
2019-04-30T03:07:41.922Z,25.20
2019-04-30T03:08:41.944Z,24.50
2019-04-30T03:09:41.902Z,25.70
2019-04-30T03:10:41.891Z,24.70
2019-04-30T03:11:41.882Z,25.00
2019-04-30T03:12:41.893Z,25.20
2019-04-30T03:13:42.891Z,26.60
2019-04-30T03:14:41.879Z,27.50
2019-04-30T03:15:41.834Z,27.20
2019-04-30T03:16:41.833Z,25.90
2019-04-30T03:17:41.848Z,26.00
2019-04-30T03:18:41.805Z,26.00
2019-04-30T03:19:41.795Z,26.20
2019-04-30T03:20:41.777Z,26.80
2019-04-30T03:21:41.775Z,25.10
2019-04-30T03:22:41.777Z,23.80
2019-04-30T03:23:41.762Z,25.20
2019-04-30T03:24:42.828Z,27.10
2019-04-30T03:25:41.723Z,26.00
2019-04-30T03:26:41.714Z,27.10
2019-04-30T03:27:42.562Z,26.50
2019-04-30T03:28:41.691Z,28.00
2019-04-30T03:29:41.679Z,26.90
2019-04-30T03:30:42.572Z,26.40
2019-04-30T03:31:44.691Z,27.90
2019-04-30T03:32:42.950Z,26.70
2019-04-30T03:33:42.693Z,26.70
2019-04-30T03:34:42.555Z,26.40
2019-04-30T03:35:47.453Z,26.60
2019-04-30T03:36:42.603Z,25.70
2019-04-30T03:37:41.626Z,26.40
2019-04-30T03:38:42.783Z,25.40
2019-04-30T03:39:41.565Z,26.30
2019-04-30T03:40:41.561Z,25.10
2019-04-30T03:41:41.795Z,25.50
2019-04-30T03:42:41.639Z,26.20
2019-04-30T03:43:41.519Z,27.10
2019-04-30T03:44:41.532Z,25.80
2019-04-30T03:45:41.501Z,24.90
2019-04-30T03:46:41.493Z,29.00
2019-04-30T03:47:43.271Z,28.40
2019-04-30T03:48:41.471Z,29.10
2019-04-30T03:49:41.467Z,28.70
2019-04-30T03:50:50.333Z,29.30
2019-04-30T03:51:42.433Z,27.50
2019-04-30T03:52:41.434Z,28.10
2019-04-30T03:53:42.738Z,29.30
2019-04-30T03:54:41.405Z,28.90
2019-04-30T03:55:41.391Z,30.20
2019-04-30T03:56:41.380Z,29.40
2019-04-30T03:57:41.368Z,28.90
2019-04-30T03:58:41.403Z,29.90
2019-04-30T03:59:41.344Z,29.20
2019-04-30T04:00:42.560Z,30.00
2019-04-30T04:01:41.326Z,29.40
2019-04-30T04:02:41.316Z,30.50
2019-04-30T04:03:42.262Z,29.60
2019-04-30T04:04:41.293Z,30.60
2019-04-30T04:05:41.279Z,29.90
2019-04-30T04:06:41.263Z,30.70
2019-04-30T04:07:41.259Z,28.90
2019-04-30T04:08:43.212Z,31.60
2019-04-30T04:09:41.230Z,31.60
2019-04-30T04:10:41.229Z,31.30
2019-04-30T04:11:41.211Z,31.90
2019-04-30T04:12:41.196Z,32.30
2019-04-30T04:13:41.208Z,32.70
2019-04-30T04:14:41.175Z,32.50
2019-04-30T04:15:41.165Z,32.30
2019-04-30T04:16:41.252Z,32.30
2019-04-30T04:17:41.144Z,32.80
2019-04-30T04:18:41.161Z,33.90
2019-04-30T04:19:41.120Z,32.90
2019-04-30T04:20:42.919Z,32.50
2019-04-30T04:21:41.097Z,31.30
2019-04-30T04:22:41.090Z,33.70
2019-04-30T04:23:41.125Z,32.80
2019-04-30T04:24:41.073Z,34.00
2019-04-30T04:25:41.050Z,34.00
2019-04-30T04:26:43.837Z,31.40
2019-04-30T04:27:41.054Z,33.80
2019-04-30T04:28:43.531Z,32.90
2019-04-30T04:29:41.016Z,34.30
2019-04-30T04:30:42.960Z,33.30
2019-04-30T04:31:41.001Z,33.70
2019-04-30T04:32:40.981Z,33.50
2019-04-30T04:33:41.002Z,34.40
2019-04-30T04:34:40.978Z,35.50
2019-04-30T04:35:40.947Z,36.20
2019-04-30T04:36:43.381Z,35.60
2019-04-30T04:37:40.922Z,36.00
2019-04-30T04:38:40.908Z,36.00
2019-04-30T04:39:42.075Z,35.50
2019-04-30T04:40:40.911Z,36.90
2019-04-30T04:41:44.040Z,36.20
2019-04-30T04:42:40.875Z,35.10
2019-04-30T04:43:40.849Z,36.90
2019-04-30T04:44:40.870Z,35.80
2019-04-30T04:45:43.799Z,36.30
2019-04-30T04:46:40.819Z,37.00
2019-04-30T04:47:40.813Z,37.80
2019-04-30T04:48:40.794Z,38.00
2019-04-30T04:49:40.810Z,37.90
2019-04-30T04:50:40.774Z,37.00
2019-04-30T04:51:42.303Z,39.20
2019-04-30T04:52:40.757Z,38.30
2019-04-30T04:53:40.742Z,37.70
2019-04-30T04:54:40.766Z,36.50
2019-04-30T04:55:40.718Z,37.40
2019-04-30T04:56:40.711Z,40.50
2019-04-30T04:57:40.698Z,37.70
2019-04-30T04:58:40.686Z,38.60
2019-04-30T04:59:42.618Z,37.90
2019-04-30T05:00:40.695Z,39.30
2019-04-30T05:01:40.681Z,38.20
2019-04-30T05:02:40.646Z,36.30
2019-04-30T05:03:40.629Z,39.30
2019-04-30T05:04:40.630Z,38.90
2019-04-30T05:05:40.633Z,38.80
2019-04-30T05:06:40.593Z,39.50
2019-04-30T05:07:40.584Z,38.10
2019-04-30T05:08:40.582Z,39.70
2019-04-30T05:09:40.559Z,37.90
2019-04-30T05:10:40.574Z,37.80
2019-04-30T05:11:40.570Z,37.20
2019-04-30T05:12:40.527Z,37.60
2019-04-30T05:13:40.517Z,37.90
2019-04-30T05:14:40.515Z,38.60
2019-04-30T05:15:40.519Z,37.90
2019-04-30T05:16:40.485Z,38.70
2019-04-30T05:17:40.469Z,37.60
2019-04-30T05:18:40.463Z,38.40
2019-04-30T05:19:40.449Z,38.20
2019-04-30T05:20:41.758Z,36.00
2019-04-30T05:21:44.512Z,39.80
2019-04-30T05:22:40.415Z,38.50
2019-04-30T05:23:42.671Z,40.10
2019-04-30T05:24:40.886Z,38.10
2019-04-30T05:25:40.409Z,37.40
2019-04-30T05:26:40.370Z,39.00
2019-04-30T05:27:40.360Z,41.30
2019-04-30T05:28:40.374Z,40.70
2019-04-30T05:29:40.337Z,41.40
2019-04-30T05:30:40.328Z,40.40
2019-04-30T05:31:40.343Z,40.70
2019-04-30T05:32:40.302Z,41.10
2019-04-30T05:33:40.298Z,41.90
2019-04-30T05:34:40.282Z,41.40
2019-04-30T05:35:40.273Z,42.00
2019-04-30T05:36:40.286Z,40.20
2019-04-30T05:37:40.246Z,40.80
2019-04-30T05:38:40.238Z,39.80
2019-04-30T05:39:40.230Z,37.70
2019-04-30T05:40:42.492Z,40.60
2019-04-30T05:41:41.149Z,37.90
2019-04-30T05:42:40.193Z,40.10
2019-04-30T05:43:40.182Z,39.80
2019-04-30T05:44:40.176Z,39.60
2019-04-30T05:45:40.156Z,40.50
2019-04-30T05:46:40.178Z,40.60
2019-04-30T05:47:40.138Z,39.70
2019-04-30T05:48:40.128Z,41.00
2019-04-30T05:49:40.149Z,40.60
2019-04-30T05:50:40.105Z,40.30
2019-04-30T05:51:52.385Z,40.50
2019-04-30T05:52:41.077Z,40.60
2019-04-30T05:53:40.091Z,39.90
2019-04-30T05:54:40.058Z,40.30
2019-04-30T05:55:40.048Z,40.90
2019-04-30T05:56:42.646Z,40.90
2019-04-30T05:57:52.740Z,39.00
2019-04-30T05:58:41.010Z,40.20
2019-04-30T05:59:40.042Z,41.20
2019-04-30T06:00:40.205Z,40.20
2019-04-30T06:01:39.980Z,40.60
2019-04-30T06:02:40.158Z,39.20
2019-04-30T06:03:39.958Z,38.50
2019-04-30T06:04:39.944Z,40.30
2019-04-30T06:05:39.940Z,40.30
2019-04-30T06:06:39.924Z,40.70
2019-04-30T06:07:39.952Z,41.10
2019-04-30T06:08:39.910Z,40.40
2019-04-30T06:09:39.890Z,39.20
2019-04-30T06:10:39.878Z,41.10
2019-04-30T06:11:39.898Z,40.50
2019-04-30T06:12:39.882Z,40.10
2019-04-30T06:13:40.369Z,42.50
2019-04-30T06:14:48.421Z,41.70
2019-04-30T06:15:40.828Z,40.90
2019-04-30T06:16:39.811Z,41.60
2019-04-30T06:17:39.826Z,41.40
2019-04-30T06:18:42.145Z,42.00
2019-04-30T06:19:39.783Z,40.00
2019-04-30T06:20:39.771Z,37.90
2019-04-30T06:21:39.755Z,38.40
2019-04-30T06:22:39.749Z,40.90
2019-04-30T06:23:39.761Z,40.70
2019-04-30T06:24:39.722Z,40.30
2019-04-30T06:25:55.722Z,40.50
2019-04-30T06:26:40.699Z,40.30
2019-04-30T06:27:39.687Z,40.00
2019-04-30T06:28:41.625Z,40.40
2019-04-30T06:29:39.673Z,38.80
2019-04-30T06:30:39.795Z,39.10
2019-04-30T06:31:40.423Z,38.20
2019-04-30T06:32:39.631Z,38.70
2019-04-30T06:33:39.656Z,37.30
2019-04-30T06:34:41.930Z,38.60
2019-04-30T06:35:39.604Z,37.60
2019-04-30T06:36:51.064Z,38.50
2019-04-30T06:37:40.577Z,39.10
2019-04-30T06:38:39.587Z,38.80
2019-04-30T06:39:39.553Z,38.00
2019-04-30T06:40:39.543Z,36.70
2019-04-30T06:41:41.018Z,37.20
2019-04-30T06:42:39.533Z,37.20
2019-04-30T06:43:39.534Z,35.90
2019-04-30T06:44:41.785Z,35.60
2019-04-30T06:45:39.486Z,35.80
2019-04-30T06:46:39.516Z,34.80
2019-04-30T06:47:39.474Z,37.50
2019-04-30T06:48:41.832Z,38.10
2019-04-30T06:49:39.468Z,37.70
2019-04-30T06:50:39.515Z,39.30
2019-04-30T06:51:39.423Z,37.10
2019-04-30T06:52:39.408Z,38.50
2019-04-30T06:53:39.400Z,37.30
2019-04-30T06:54:39.846Z,37.40
2019-04-30T06:55:39.460Z,36.70
2019-04-30T06:56:39.367Z,36.90
2019-04-30T06:57:39.360Z,36.60
2019-04-30T06:58:41.427Z,36.60
2019-04-30T06:59:39.718Z,37.20
2019-04-30T07:00:39.983Z,35.60
2019-04-30T07:01:39.323Z,34.20
2019-04-30T07:02:39.410Z,36.20
2019-04-30T07:03:39.289Z,36.30
2019-04-30T07:04:40.177Z,35.60
2019-04-30T07:05:39.355Z,34.90
2019-04-30T07:06:43.977Z,35.90
2019-04-30T07:07:41.741Z,35.60
2019-04-30T07:08:42.794Z,36.70
2019-04-30T07:09:52.080Z,34.40
2019-04-30T07:10:47.663Z,36.80
2019-04-30T07:11:40.195Z,35.50
2019-04-30T07:12:39.209Z,35.30
2019-04-30T07:13:39.589Z,35.00
2019-04-30T07:14:41.749Z,35.80
2019-04-30T07:15:39.524Z,35.60
2019-04-30T07:16:39.709Z,35.00
2019-04-30T07:17:40.693Z,34.70
2019-04-30T07:18:39.118Z,34.60
2019-04-30T07:19:53.408Z,35.90
2019-04-30T07:20:40.093Z,36.40
2019-04-30T07:21:42.708Z,36.00
2019-04-30T07:22:48.950Z,35.00
2019-04-30T07:23:40.063Z,34.60
2019-04-30T07:24:39.496Z,33.50
2019-04-30T07:25:39.242Z,33.10
2019-04-30T07:26:39.030Z,32.00
2019-04-30T07:27:40.153Z,32.50
2019-04-30T07:31:19.270Z,29.10
2019-04-30T07:32:19.686Z,32.10
2019-04-30T07:33:20.793Z,33.30
2019-04-30T07:34:19.615Z,33.70
2019-04-30T07:35:19.558Z,34.40
2019-04-30T07:36:19.579Z,33.00
2019-04-30T07:37:24.261Z,34.20
2019-04-30T07:38:19.504Z,33.70
2019-04-30T07:39:19.215Z,34.70
2019-04-30T07:40:19.054Z,33.90
2019-04-30T07:41:19.007Z,33.90
2019-04-30T07:42:19.187Z,32.80
2019-04-30T07:43:18.975Z,34.40
2019-04-30T07:44:31.054Z,32.30
2019-04-30T07:45:19.644Z,31.50
2019-04-30T07:46:19.979Z,31.90
2019-04-30T07:47:19.399Z,33.90
2019-04-30T07:48:21.083Z,33.50
2019-04-30T07:49:20.606Z,32.30
2019-04-30T07:50:21.073Z,31.00
2019-04-30T07:51:21.313Z,32.10
2019-04-30T07:52:20.808Z,33.80
2019-04-30T07:53:18.770Z,33.80
2019-04-30T07:54:18.960Z,35.60
2019-04-30T07:55:19.592Z,34.30
2019-04-30T07:56:25.659Z,34.10
2019-04-30T07:57:19.342Z,34.20
2019-04-30T07:58:20.414Z,34.40
2019-04-30T08:02:14.259Z,22.30
2019-04-30T08:03:10.770Z,24.70
2019-04-30T08:04:08.966Z,30.60
2019-04-30T08:05:10.520Z,31.10
2019-04-30T08:06:10.067Z,31.00
2019-04-30T08:07:09.750Z,29.50
2019-04-30T08:08:20.642Z,28.00
2019-04-30T08:09:10.399Z,29.80
2019-04-30T08:10:08.737Z,28.10
2019-04-30T08:11:09.268Z,27.50
2019-04-30T08:12:09.242Z,27.90
2019-04-30T08:13:13.837Z,29.10
2019-04-30T08:14:09.874Z,28.50
2019-04-30T08:15:09.658Z,29.00
2019-04-30T08:16:09.774Z,29.30
2019-04-30T08:17:08.830Z,28.10
2019-04-30T08:18:08.733Z,29.20
2019-04-30T08:19:09.159Z,27.50
2019-04-30T08:20:08.733Z,27.50
2019-04-30T08:21:09.427Z,27.80
2019-04-30T08:22:09.583Z,27.50
2019-04-30T08:23:20.180Z,26.40
2019-04-30T08:24:09.358Z,27.30
2019-04-30T08:25:09.717Z,25.80
2019-04-30T08:26:08.873Z,24.50
2019-04-30T08:27:09.748Z,26.60
2019-04-30T08:28:09.086Z,26.80
2019-04-30T08:29:09.583Z,26.80
2019-04-30T08:30:20.729Z,26.80
2019-04-30T08:31:09.122Z,27.60
2019-04-30T08:32:09.036Z,27.80
2019-04-30T08:33:09.481Z,26.90
2019-04-30T08:34:10.666Z,28.40
2019-04-30T08:35:09.898Z,27.90
2019-04-30T08:36:09.448Z,27.00
2019-04-30T08:37:16.983Z,27.60
2019-04-30T08:38:10.752Z,26.00
2019-04-30T08:39:09.690Z,26.60
2019-04-30T08:40:08.679Z,26.00
2019-04-30T08:41:09.299Z,26.70
2019-04-30T08:42:08.972Z,33.90
2019-04-30T08:43:09.538Z,27.60
2019-04-30T08:44:09.427Z,27.30
2019-04-30T08:45:09.493Z,25.30
2019-04-30T08:46:09.444Z,25.50
2019-04-30T08:47:08.632Z,24.40
2019-04-30T08:48:09.113Z,24.60
2019-04-30T08:49:09.706Z,26.20
2019-04-30T08:50:09.773Z,25.70
2019-04-30T08:51:09.973Z,23.70
2019-04-30T08:52:07.766Z,23.20
2019-04-30T08:53:07.724Z,23.60
2019-04-30T08:54:09.524Z,22.20
2019-04-30T08:55:14.121Z,22.60
2019-04-30T08:56:10.126Z,22.90
2019-04-30T08:57:08.593Z,22.00
2019-04-30T08:58:12.475Z,21.60
2019-04-30T08:59:11.122Z,21.00
2019-04-30T09:00:09.187Z,21.40
2019-04-30T09:01:08.797Z,21.10
2019-04-30T09:02:15.819Z,22.20
2019-04-30T09:03:09.334Z,21.80
2019-04-30T09:04:07.819Z,21.90
2019-04-30T09:05:09.330Z,23.10
2019-04-30T09:06:09.293Z,23.60
2019-04-30T09:07:10.058Z,22.60
2019-04-30T09:08:09.522Z,23.30
2019-04-30T09:09:10.720Z,24.10
2019-04-30T09:10:09.187Z,23.80
2019-04-30T09:11:19.839Z,24.20
2019-04-30T09:12:09.926Z,22.50
2019-04-30T09:13:09.109Z,22.00
2019-04-30T09:14:08.560Z,22.00
2019-04-30T09:15:09.169Z,22.70
2019-04-30T09:16:09.249Z,22.00
2019-04-30T09:17:09.178Z,22.40
2019-04-30T09:18:12.391Z,22.40
2019-04-30T09:19:09.748Z,20.70
2019-04-30T09:20:09.089Z,20.50
2019-04-30T09:21:09.012Z,21.30
2019-04-30T09:22:14.913Z,22.70
2019-04-30T09:23:10.982Z,22.50
2019-04-30T09:24:09.398Z,21.50
2019-04-30T09:25:09.226Z,21.30
2019-04-30T09:26:08.712Z,21.70
2019-04-30T09:27:10.644Z,22.30
2019-04-30T09:28:08.645Z,22.00
2019-04-30T09:29:09.202Z,23.70
2019-04-30T09:30:10.199Z,22.10
2019-04-30T09:31:08.750Z,21.90
2019-04-30T09:32:09.060Z,22.30
2019-04-30T09:33:10.942Z,22.10
2019-04-30T09:34:15.299Z,21.20
2019-04-30T09:35:09.581Z,21.30
2019-04-30T09:36:09.035Z,21.40
2019-04-30T09:37:08.692Z,21.00
2019-04-30T09:38:09.053Z,20.30
2019-04-30T09:39:08.965Z,21.60
2019-04-30T09:40:16.135Z,20.60
2019-04-30T09:41:09.354Z,21.10
2019-04-30T09:42:09.135Z,19.20
2019-04-30T09:43:08.679Z,19.50
2019-04-30T09:44:07.183Z,18.90
2019-04-30T09:45:08.763Z,18.40
2019-04-30T09:46:17.932Z,17.70
2019-04-30T09:47:08.858Z,18.50
2019-04-30T09:48:09.245Z,18.90
2019-04-30T09:49:07.112Z,18.60
2019-04-30T09:50:08.989Z,18.10
2019-04-30T09:51:07.481Z,17.90
2019-04-30T09:52:08.882Z,18.90
2019-04-30T09:53:07.053Z,18.70
2019-04-30T09:54:11.434Z,18.20
2019-04-30T09:55:09.628Z,18.60
2019-04-30T09:56:07.022Z,18.90
2019-04-30T09:57:08.773Z,18.80
2019-04-30T09:58:16.173Z,18.80
2019-04-30T09:59:09.101Z,17.20
2019-04-30T10:00:07.011Z,18.20
2019-04-30T10:01:09.287Z,17.70
2019-04-30T10:02:09.123Z,19.20
2019-04-30T10:03:09.865Z,20.10
2019-04-30T10:04:07.886Z,18.60
2019-04-30T10:05:07.446Z,18.70
2019-04-30T10:06:08.780Z,18.60
2019-04-30T10:07:06.899Z,18.70
2019-04-30T10:10:13.459Z,18.90
2019-04-30T10:10:48.678Z,17.90
2019-04-30T10:11:50.110Z,18.30
2019-04-30T10:12:49.286Z,18.00
2019-04-30T10:13:48.425Z,16.70
2019-04-30T10:14:49.492Z,16.90
2019-04-30T10:15:50.143Z,18.40
2019-04-30T10:16:49.571Z,20.60
2019-04-30T10:17:48.379Z,18.70
2019-04-30T10:18:48.378Z,16.60
2019-04-30T10:19:49.161Z,15.00
2019-04-30T10:20:48.370Z,30.10
2019-04-30T10:21:48.965Z,19.40
2019-04-30T10:22:49.529Z,15.20
2019-04-30T10:23:49.893Z,15.00
2019-04-30T10:24:49.454Z,14.70
2019-04-30T10:25:48.288Z,15.00
2019-04-30T10:26:48.298Z,15.50
2019-04-30T10:27:49.758Z,14.90
2019-04-30T10:28:48.252Z,14.90
2019-04-30T10:29:49.326Z,14.90
2019-04-30T10:30:48.255Z,15.00
2019-04-30T10:31:48.941Z,15.00
2019-04-30T10:32:50.067Z,15.60
2019-04-30T10:33:48.600Z,15.40
2019-04-30T10:34:48.188Z,15.90
2019-04-30T10:35:49.577Z,15.10
2019-04-30T10:36:49.479Z,17.00
2019-04-30T10:37:48.593Z,19.20
2019-04-30T10:38:49.415Z,17.10
2019-04-30T10:39:48.983Z,17.90
2019-04-30T10:40:48.761Z,18.50
2019-04-30T10:41:48.152Z,18.40
2019-04-30T10:42:48.887Z,18.40
2019-04-30T10:43:49.215Z,19.00
2019-04-30T10:44:48.102Z,18.80
2019-04-30T10:45:48.548Z,18.70
2019-04-30T10:46:48.055Z,18.60
2019-04-30T10:47:49.219Z,18.40
2019-04-30T10:48:48.035Z,17.70
2019-04-30T10:49:48.689Z,17.20
2019-04-30T10:50:49.192Z,17.00
2019-04-30T10:51:47.997Z,18.40
2019-04-30T10:52:49.171Z,18.40
2019-04-30T10:53:48.578Z,18.10
2019-04-30T10:54:49.621Z,18.00
2019-04-30T10:55:48.574Z,18.10
2019-04-30T10:56:49.019Z,17.40
2019-04-30T10:57:49.549Z,17.90
2019-04-30T10:58:48.142Z,16.20
2019-04-30T10:59:48.718Z,16.60
2019-04-30T11:00:49.697Z,18.10
2019-04-30T11:01:49.270Z,17.20
2019-04-30T11:02:49.654Z,17.20
2019-04-30T11:03:47.865Z,17.00
2019-04-30T11:04:47.861Z,17.80
2019-04-30T11:05:48.807Z,18.50
2019-04-30T11:06:47.840Z,17.80
2019-04-30T11:07:49.527Z,17.50
2019-04-30T11:08:47.807Z,17.40
2019-04-30T11:09:49.361Z,17.30
2019-04-30T11:10:47.785Z,18.70
2019-04-30T11:11:49.520Z,16.40
2019-04-30T11:12:47.760Z,17.40
2019-04-30T11:13:47.749Z,17.70
2019-04-30T11:14:47.755Z,17.10
2019-04-30T11:15:49.226Z,18.00
2019-04-30T11:16:51.262Z,18.50
2019-04-30T11:17:49.426Z,16.20
2019-04-30T11:18:47.841Z,17.20
2019-04-30T11:19:49.285Z,17.00
2019-04-30T11:20:49.625Z,16.80
2019-04-30T11:21:47.808Z,16.00
2019-04-30T11:22:47.879Z,18.10
2019-04-30T11:23:49.499Z,17.90
2019-04-30T11:24:58.881Z,16.50
2019-04-30T11:25:51.070Z,16.70
2019-04-30T11:26:50.176Z,16.50
2019-04-30T11:27:50.012Z,16.70
2019-04-30T11:28:47.748Z,17.10
2019-04-30T11:29:49.295Z,15.80
2019-04-30T11:30:47.719Z,15.90
2019-04-30T11:31:47.784Z,16.50
2019-04-30T11:32:47.833Z,17.30
2019-04-30T11:33:47.924Z,16.70
2019-04-30T11:34:47.520Z,17.00
2019-04-30T11:35:49.266Z,16.00
2019-04-30T11:36:48.513Z,14.90
2019-04-30T11:37:47.507Z,15.30
2019-04-30T11:38:48.749Z,16.20
2019-04-30T11:39:47.460Z,15.90
2019-04-30T11:40:48.605Z,15.40
2019-04-30T11:41:47.443Z,15.80
2019-04-30T11:42:47.454Z,16.70
2019-04-30T11:43:49.507Z,17.60
2019-04-30T11:44:48.821Z,16.40
2019-04-30T11:45:47.395Z,17.40
2019-04-30T11:46:49.457Z,16.20
2019-04-30T11:47:53.257Z,16.40
2019-04-30T11:48:49.027Z,16.10
2019-04-30T11:49:47.354Z,16.60
2019-04-30T11:50:49.553Z,16.70
2019-04-30T11:51:47.332Z,15.10
2019-04-30T11:52:47.340Z,15.10
2019-04-30T11:53:48.998Z,16.30
2019-04-30T11:54:51.597Z,17.00
2019-04-30T11:55:49.163Z,16.50
2019-04-30T11:56:50.307Z,17.10
2019-04-30T11:57:49.410Z,16.80
2019-04-30T11:58:48.892Z,16.80
2019-04-30T11:59:47.244Z,16.00
2019-04-30T12:00:47.226Z,16.30
2019-04-30T12:01:47.260Z,16.50
2019-04-30T12:02:49.083Z,15.50
2019-04-30T12:03:49.746Z,16.60
2019-04-30T12:04:49.328Z,16.50
2019-04-30T12:05:49.075Z,15.60
2019-04-30T12:06:47.178Z,15.40
2019-04-30T12:07:48.276Z,16.20
2019-04-30T12:08:49.131Z,16.30
2019-04-30T12:09:48.487Z,16.10
2019-04-30T12:10:47.115Z,17.30
2019-04-30T12:11:50.546Z,17.00
2019-04-30T12:12:48.706Z,17.10
2019-04-30T12:13:47.105Z,17.30
2019-04-30T12:14:47.071Z,16.30
2019-04-30T12:15:50.026Z,15.90
2019-04-30T12:16:47.051Z,17.40
2019-04-30T12:17:47.041Z,16.70
2019-04-30T12:18:47.068Z,17.70
2019-04-30T12:19:48.705Z,17.20
2019-04-30T12:20:47.003Z,20.50
2019-04-30T12:21:46.994Z,18.40
2019-04-30T12:22:46.981Z,17.80
2019-04-30T12:23:47.000Z,17.40
2019-04-30T12:24:48.761Z,16.10
2019-04-30T12:25:49.179Z,17.40
2019-04-30T12:26:48.899Z,17.60
2019-04-30T12:27:48.805Z,17.50
2019-04-30T12:28:46.939Z,16.50
2019-04-30T12:29:46.904Z,16.10
2019-04-30T12:30:48.785Z,16.10
2019-04-30T12:31:46.886Z,17.30
2019-04-30T12:32:46.885Z,16.90
2019-04-30T12:33:46.885Z,17.60
2019-04-30T12:34:46.850Z,16.10
2019-04-30T12:35:46.842Z,16.70
2019-04-30T12:36:46.827Z,16.30
2019-04-30T12:37:49.059Z,16.80
2019-04-30T12:38:46.845Z,16.00
2019-04-30T12:39:46.794Z,15.20
2019-04-30T12:40:46.781Z,15.40
2019-04-30T12:41:46.771Z,15.80
2019-04-30T12:42:48.607Z,15.20
2019-04-30T12:43:46.778Z,15.10
2019-04-30T12:44:46.737Z,15.10
2019-04-30T12:45:46.734Z,15.00
2019-04-30T12:46:48.520Z,14.60
2019-04-30T12:47:46.703Z,17.10
2019-04-30T12:48:46.702Z,15.70
2019-04-30T12:49:46.743Z,15.30
2019-04-30T12:50:46.674Z,15.40
2019-04-30T12:51:48.839Z,15.60
2019-04-30T12:52:46.649Z,15.00
2019-04-30T12:53:46.642Z,14.60
2019-04-30T12:54:46.654Z,15.40
2019-04-30T12:55:46.618Z,14.50
2019-04-30T12:56:46.607Z,14.50
2019-04-30T12:57:58.175Z,14.50
2019-04-30T12:58:47.588Z,13.80
2019-04-30T12:59:46.598Z,16.20